Time;durP1;ratioP1;P1;durP2;ratioP2;P2;SDS_P1;SDS_P2;PMS_P1;PMS_P2;Temp;Humidity;BMP_temperature;BMP_pressure;BME280_temperature;BME280_humidity;BME280_pressure;Samples;Min_cycle;Max_cycle;Signal;HPM_P1;HPM_P2
2022/07/31 00:00:11;;;;;;;0.40;0.40;;;;;;;25.84;53.18;94897.66;5049942;28;20193;-66
2022/07/31 00:02:38;;;;;;;0.77;0.50;;;;;;;25.66;53.31;94891.13;5050432;28;20193;-65
2022/07/31 00:05:06;;;;;;;1.27;0.80;;;;;;;25.61;53.72;94899.47;5049847;28;20776;-67
2022/07/31 00:07:32;;;;;;;0.60;0.40;;;;;;;25.58;53.43;94900.16;5049930;28;20204;-63
2022/07/31 00:09:59;;;;;;;0.43;0.43;;;;;;;25.76;52.81;94902.13;5049906;28;20262;-65
2022/07/31 00:12:26;;;;;;;0.97;0.87;;;;;;;25.50;54.30;94901.91;5048194;28;20193;-67
2022/07/31 00:14:54;;;;;;;1.20;0.70;;;;;;;25.66;54.07;94907.22;5039610;28;20601;-66
2022/07/31 00:17:21;;;;;;;0.50;0.50;;;;;;;25.72;53.83;94908.53;5048350;28;20196;-65
2022/07/31 00:19:47;;;;;;;2.53;1.00;;;;;;;25.97;53.44;94897.19;5044170;28;20295;-65
2022/07/31 00:22:14;;;;;;;0.80;0.80;;;;;;;25.92;53.91;94904.75;5047645;28;20197;-63
2022/07/31 00:24:41;;;;;;;0.30;0.30;;;;;;;26.11;53.41;94912.88;5041026;28;20278;-65
2022/07/31 00:27:09;;;;;;;1.17;1.07;;;;;;;26.09;53.05;94912.44;5040489;28;20589;-65
2022/07/31 00:29:37;;;;;;;0.60;0.60;;;;;;;26.12;52.91;94921.69;5051606;28;20569;-65
2022/07/31 00:32:04;;;;;;;0.77;0.77;;;;;;;25.98;53.39;94925.59;5040585;28;20207;-65
2022/07/31 00:34:31;;;;;;;1.37;1.27;;;;;;;25.75;54.17;94924.72;5051077;28;20197;-64
2022/07/31 00:37:01;;;;;;;0.50;0.50;;;;;;;25.70;54.48;94898.16;5052075;28;20295;-64
2022/07/31 00:39:29;;;;;;;1.03;0.97;;;;;;;25.91;54.03;94924.69;5037705;28;20201;-63
2022/07/31 00:41:56;;;;;;;0.43;0.43;;;;;;;25.31;55.77;94922.50;5051783;28;20596;-68
2022/07/31 00:44:24;;;;;;;0.60;0.60;;;;;;;25.29;56.32;94927.44;5051261;28;20264;-65
2022/07/31 00:46:52;;;;;;;1.03;1.03;;;;;;;25.79;54.98;94922.09;5051711;28;20696;-65
2022/07/31 00:49:19;;;;;;;0.37;0.37;;;;;;;25.25;57.14;94915.84;5053054;28;20200;-70
2022/07/31 00:51:46;;;;;;;1.20;1.20;;;;;;;24.89;58.49;94912.28;5052987;28;20230;-68
2022/07/31 00:54:14;;;;;;;2.37;1.93;;;;;;;25.13;58.12;94918.63;5053365;28;20192;-68
2022/07/31 00:56:48;;;;;;;0.90;0.87;;;;;;;25.62;56.58;94925.19;5051416;28;20207;-65
2022/07/31 00:59:15;;;;;;;1.13;0.90;;;;;;;25.76;56.05;94928.97;5052803;28;20204;-63
2022/07/31 01:01:50;;;;;;;0.63;0.63;;;;;;;25.71;55.67;94936.50;5051470;28;20200;-66
2022/07/31 01:04:17;;;;;;;2.23;1.67;;;;;;;24.96;57.93;94928.53;5051572;28;20269;-67
2022/07/31 01:06:46;;;;;;;1.47;1.37;;;;;;;25.46;56.35;94929.78;5052998;28;20197;-65
2022/07/31 01:09:14;;;;;;;0.83;0.83;;;;;;;25.57;56.60;94930.81;5052496;28;20254;-64
2022/07/31 01:11:50;;;;;;;3.20;1.83;;;;;;;25.80;55.85;94931.72;5039180;28;20211;-65
2022/07/31 01:14:23;;;;;;;1.33;1.23;;;;;;;25.78;56.05;94942.03;5051793;28;20675;-65
2022/07/31 01:16:53;;;;;;;2.87;1.97;;;;;;;25.93;55.14;94943.88;5052667;28;20698;-64
2022/07/31 01:19:29;;;;;;;3.00;1.33;;;;;;;25.72;55.56;94944.22;5047023;28;20200;-64
2022/07/31 01:22:41;;;;;;;3.23;1.60;;;;;;;25.87;55.42;94945.31;5031441;28;20251;-65
2022/07/31 01:25:30;;;;;;;1.70;1.60;;;;;;;26.00;54.71;94939.44;5051129;28;20231;-64
2022/07/31 01:28:08;;;;;;;0.60;0.60;;;;;;;25.70;55.72;94927.66;5036301;28;20674;-63
2022/07/31 01:31:18;;;;;;;1.63;1.27;;;;;;;25.75;55.18;94923.91;5037564;28;20201;-63
2022/07/31 01:34:07;;;;;;;2.00;1.60;;;;;;;25.90;54.46;94929.28;5046244;28;20200;-64
2022/07/31 01:36:38;;;;;;;0.63;0.63;;;;;;;25.77;55.26;94945.81;5053040;28;20291;-67
2022/07/31 01:39:05;;;;;;;0.70;0.70;;;;;;;25.98;54.66;94943.63;5050180;28;20580;-65
2022/07/31 01:41:39;;;;;;;1.43;1.33;;;;;;;25.98;54.71;94946.31;5050392;28;20219;-69
2022/07/31 01:44:07;;;;;;;1.23;1.13;;;;;;;25.79;54.63;94938.22;5037615;28;20225;-65
2022/07/31 01:46:42;;;;;;;1.47;1.37;;;;;;;25.99;54.21;94942.50;5050228;28;20206;-64
2022/07/31 01:49:12;;;;;;;0.80;0.80;;;;;;;26.11;53.69;94939.72;5059847;28;20200;-62
2022/07/31 01:51:43;;;;;;;0.63;0.63;;;;;;;25.84;54.27;94929.88;5044953;28;20197;-64
2022/07/31 01:54:12;;;;;;;0.40;0.40;;;;;;;25.91;54.08;94924.69;5049122;28;20258;-68
2022/07/31 01:56:40;;;;;;;1.60;1.40;;;;;;;25.79;54.05;94920.19;5050078;28;20206;-67
2022/07/31 01:59:10;;;;;;;0.47;0.47;;;;;;;25.99;53.22;94918.31;5050586;28;20231;-65
2022/07/31 02:02:07;;;;;;;0.70;0.70;;;;;;;25.83;53.84;94929.13;5050016;28;20193;-65
2022/07/31 02:04:36;;;;;;;0.20;0.20;;;;;;;25.80;53.99;94927.13;5050338;28;20605;-65
2022/07/31 02:07:04;;;;;;;1.17;1.13;;;;;;;25.38;54.56;94933.44;5050316;28;20196;-65
2022/07/31 02:09:33;;;;;;;0.77;0.77;;;;;;;24.97;55.94;94930.09;5051165;28;20185;-68
2022/07/31 02:12:01;;;;;;;0.60;0.60;;;;;;;25.19;55.26;94931.41;5035577;28;20204;-66
2022/07/31 02:14:29;;;;;;;0.40;0.40;;;;;;;24.91;56.06;94931.47;5050763;28;20230;-64
2022/07/31 02:16:58;;;;;;;1.07;1.00;;;;;;;25.11;55.58;94921.63;5038149;28;20323;-66
2022/07/31 02:19:46;;;;;;;0.43;0.43;;;;;;;25.39;55.01;94934.97;5039278;28;20682;-65
2022/07/31 02:22:25;;;;;;;1.73;1.43;;;;;;;25.45;54.75;94936.28;5051261;28;20192;-66
2022/07/31 02:24:52;;;;;;;1.20;1.10;;;;;;;25.59;54.54;94939.28;5041365;28;20229;-65
2022/07/31 02:27:21;;;;;;;0.60;0.60;;;;;;;25.65;54.24;94932.53;5044427;28;20204;-68
2022/07/31 02:30:12;;;;;;;0.77;0.77;;;;;;;25.46;54.51;94935.13;5050088;28;20218;-69
2022/07/31 02:32:43;;;;;;;2.03;1.17;;;;;;;25.84;54.01;94936.03;5049852;28;20211;-67
2022/07/31 02:35:12;;;;;;;0.83;0.80;;;;;;;25.84;54.11;94937.94;5040693;28;20240;-68
2022/07/31 02:37:41;;;;;;;0.83;0.63;;;;;;;25.56;54.32;94940.00;5045117;28;20200;-66
2022/07/31 02:40:12;;;;;;;1.27;1.17;;;;;;;25.57;54.25;94941.53;5040886;28;20649;-67
2022/07/31 02:42:40;;;;;;;0.37;0.37;;;;;;;25.57;53.75;94946.91;5029256;28;20197;-66
2022/07/31 02:45:09;;;;;;;0.63;0.43;;;;;;;25.41;54.50;94932.72;5036208;28;20229;-67
2022/07/31 02:47:37;;;;;;;0.30;0.30;;;;;;;25.33;54.72;94947.84;5050677;28;20201;-64
2022/07/31 02:50:08;;;;;;;0.50;0.50;;;;;;;25.26;55.08;94941.53;5042859;28;20251;-67
2022/07/31 02:52:37;;;;;;;1.00;0.90;;;;;;;25.22;55.17;94940.69;5041868;28;20242;-64
2022/07/31 02:55:05;;;;;;;0.57;0.57;;;;;;;25.24;54.89;94943.78;5023136;28;20193;-64
2022/07/31 02:57:32;;;;;;;0.40;0.40;;;;;;;25.26;54.42;94947.66;5042172;28;20204;-65
2022/07/31 02:59:58;;;;;;;0.20;0.20;;;;;;;25.23;54.57;94947.59;5042703;28;20206;-65
2022/07/31 03:02:26;;;;;;;0.90;0.87;;;;;;;25.25;53.97;94945.34;5034899;28;20192;-66
2022/07/31 03:05:04;;;;;;;0.83;0.83;;;;;;;25.32;54.09;94946.28;5048877;28;20232;-65
2022/07/31 03:07:31;;;;;;;0.40;0.40;;;;;;;25.19;54.20;94947.50;5049226;28;20715;-68
2022/07/31 03:09:58;;;;;;;1.60;1.50;;;;;;;25.29;54.41;94940.84;5037561;28;20597;-66
2022/07/31 03:12:46;;;;;;;0.63;0.63;;;;;;;25.11;55.19;94935.03;5035433;28;20238;-65
2022/07/31 03:15:16;;;;;;;0.50;0.50;;;;;;;25.01;55.28;94940.91;5048936;28;20195;-65
2022/07/31 03:17:44;;;;;;;0.57;0.57;;;;;;;25.23;54.65;94942.22;5048954;28;20733;-67
2022/07/31 03:20:17;;;;;;;0.93;0.77;;;;;;;25.40;54.52;94949.97;5049046;28;20193;-68
2022/07/31 03:22:45;;;;;;;1.13;1.03;;;;;;;25.32;54.47;94948.97;5034821;28;20250;-67
2022/07/31 03:25:13;;;;;;;7.73;3.23;;;;;;;24.99;55.01;94938.59;5037765;28;20213;-63
2022/07/31 03:27:49;;;;;;;0.97;0.97;;;;;;;24.93;55.49;94950.69;5033337;28;20639;-64
2022/07/31 03:30:24;;;;;;;0.73;0.73;;;;;;;24.88;56.59;94955.50;5048977;28;20207;-67
2022/07/31 03:32:55;;;;;;;1.20;1.13;;;;;;;24.70;56.63;94955.06;5048681;28;20203;-66
2022/07/31 03:35:24;;;;;;;1.30;1.20;;;;;;;24.69;56.52;94964.16;5048774;28;20208;-64
2022/07/31 03:37:51;;;;;;;0.30;0.30;;;;;;;24.43;56.78;94973.78;5048801;28;20203;-65
2022/07/31 03:40:18;;;;;;;2.00;1.33;;;;;;;24.61;56.42;94973.16;5049141;28;20212;-67
2022/07/31 03:42:48;;;;;;;2.20;1.53;;;;;;;24.34;56.62;94975.81;5032965;28;20203;-67
2022/07/31 03:45:16;;;;;;;1.03;0.97;;;;;;;24.13;57.19;94964.47;5028658;28;20233;-67
2022/07/31 03:47:43;;;;;;;0.50;0.50;;;;;;;24.34;56.77;94968.56;5043021;28;20725;-66
2022/07/31 03:50:11;;;;;;;0.90;0.90;;;;;;;24.70;55.86;94978.34;5048740;28;20558;-64
2022/07/31 03:52:38;;;;;;;3.43;1.70;;;;;;;24.55;55.64;94981.75;5042866;28;20212;-67
2022/07/31 03:55:07;;;;;;;0.87;0.87;;;;;;;24.64;55.18;94972.47;5042825;28;20645;-65
2022/07/31 03:57:36;;;;;;;2.20;1.33;;;;;;;24.76;54.89;94977.03;5053768;28;20196;-68
2022/07/31 04:00:04;;;;;;;1.87;1.43;;;;;;;24.71;54.93;94975.34;5052598;28;20208;-63
2022/07/31 04:02:43;;;;;;;0.97;0.97;;;;;;;24.48;55.57;94971.63;5054669;28;20620;-65
2022/07/31 04:05:30;;;;;;;1.00;0.80;;;;;;;23.94;56.67;94983.81;5053746;28;20238;-63
2022/07/31 04:07:58;;;;;;;2.43;1.50;;;;;;;23.36;58.60;94984.25;5052406;28;20219;-64
2022/07/31 04:10:25;;;;;;;0.27;0.27;;;;;;;22.76;60.11;94991.00;5035904;28;20200;-67
2022/07/31 04:12:53;;;;;;;1.53;1.37;;;;;;;23.53;58.57;94989.38;5052171;28;20625;-65
2022/07/31 04:15:20;;;;;;;0.77;0.77;;;;;;;23.45;58.43;94983.03;5052231;28;20228;-66
2022/07/31 04:17:47;;;;;;;0.47;0.47;;;;;;;23.00;59.68;94985.72;5068971;28;20200;-63
2022/07/31 04:20:20;;;;;;;0.80;0.80;;;;;;;22.72;60.58;95000.78;5052121;28;20205;-61
2022/07/31 04:22:48;;;;;;;2.93;0.90;;;;;;;23.09;60.36;94996.31;5037739;28;20231;-67
2022/07/31 04:25:31;;;;;;;1.47;1.37;;;;;;;23.48;59.34;94986.94;5051791;28;20296;-67
2022/07/31 04:28:20;;;;;;;0.53;0.53;;;;;;;23.79;57.88;94981.81;5040864;28;20289;-63
2022/07/31 04:30:47;;;;;;;0.87;0.87;;;;;;;23.43;59.28;94973.78;5051649;28;20258;-64
2022/07/31 04:33:14;;;;;;;0.50;0.50;;;;;;;23.67;58.36;94976.44;5051800;28;20197;-65
2022/07/31 04:35:41;;;;;;;1.37;1.27;;;;;;;24.18;56.82;94973.06;5038685;28;20217;-65
2022/07/31 04:38:07;;;;;;;0.53;0.53;;;;;;;24.30;56.81;94970.38;5051490;28;20295;-69
2022/07/31 04:40:36;;;;;;;0.60;0.60;;;;;;;24.26;57.11;94966.81;5051831;28;20212;-64
2022/07/31 04:43:03;;;;;;;1.17;0.77;;;;;;;24.17;56.91;94966.16;5048553;28;20201;-67
2022/07/31 04:45:30;;;;;;;1.00;0.97;;;;;;;24.76;55.73;94966.31;5041525;28;20276;-67
2022/07/31 04:47:57;;;;;;;1.10;1.10;;;;;;;24.87;55.53;94978.84;5051210;28;20200;-69
2022/07/31 04:50:24;;;;;;;0.90;0.90;;;;;;;24.71;56.29;94964.63;5035123;28;20661;-65
2022/07/31 04:52:55;;;;;;;0.60;0.60;;;;;;;24.35;56.69;94969.34;5042927;28;20205;-68
2022/07/31 04:55:24;;;;;;;1.10;1.10;;;;;;;24.94;55.38;94972.91;5051352;28;20231;-63
2022/07/31 04:57:51;;;;;;;1.43;1.33;;;;;;;25.02;54.70;94975.44;5041341;28;20224;-65
2022/07/31 05:00:18;;;;;;;0.87;0.87;;;;;;;24.24;55.57;94977.06;5047355;28;20200;-66
2022/07/31 05:02:45;;;;;;;2.10;1.13;;;;;;;24.47;56.42;94977.34;5050732;28;20624;-64
2022/07/31 05:05:12;;;;;;;1.00;1.00;;;;;;;25.09;54.09;94989.00;5050452;28;20220;-65
2022/07/31 05:07:41;;;;;;;1.37;1.27;;;;;;;25.44;53.56;94983.78;5052700;28;20204;-64
2022/07/31 05:13:00;;;;;;;0.80;0.80;;;;;;;24.87;54.55;94981.53;5052330;28;20657;-65
2022/07/31 05:15:27;;;;;;;1.07;0.97;;;;;;;24.41;55.90;94990.19;5050781;28;20204;-63
2022/07/31 05:17:55;;;;;;;1.17;1.10;;;;;;;24.49;55.89;94983.16;5050785;28;20204;-66
2022/07/31 05:20:46;;;;;;;0.40;0.40;;;;;;;24.53;55.22;94976.75;5050831;28;20590;-64
2022/07/31 05:23:40;;;;;;;1.03;1.03;;;;;;;24.92;54.58;94981.31;5051103;28;20215;-65
2022/07/31 05:26:23;;;;;;;1.00;0.90;;;;;;;24.95;54.32;94985.19;5037568;28;20305;-64
2022/07/31 05:28:52;;;;;;;1.47;1.37;;;;;;;24.28;56.04;94994.03;5050954;28;20667;-63
2022/07/31 05:31:24;;;;;;;6.07;0.97;;;;;;;24.51;55.91;94991.59;5030926;28;20189;-64
2022/07/31 05:33:51;;;;;;;0.40;0.40;;;;;;;24.44;55.45;94997.53;5043301;28;20291;-63
2022/07/31 05:36:19;;;;;;;0.57;0.57;;;;;;;24.53;55.22;94979.44;5046173;28;20280;-63
2022/07/31 05:38:46;;;;;;;0.47;0.47;;;;;;;25.20;53.70;94983.16;5041522;28;20242;-63
2022/07/31 05:41:32;;;;;;;0.93;0.93;;;;;;;25.56;52.59;94983.72;5037994;28;20279;-64
2022/07/31 05:44:23;;;;;;;0.87;0.87;;;;;;;25.64;52.31;94984.63;5050249;28;20331;-61
2022/07/31 05:46:50;;;;;;;0.60;0.60;;;;;;;26.05;51.23;94976.03;5050419;28;20232;-63
2022/07/31 05:49:17;;;;;;;0.30;0.30;;;;;;;25.63;51.48;94980.41;5050412;28;20326;-65
2022/07/31 05:51:52;;;;;;;0.50;0.50;;;;;;;25.64;52.12;94984.63;5036360;28;20656;-65
2022/07/31 05:54:20;;;;;;;1.23;0.53;;;;;;;25.33;52.00;94979.28;5050639;28;20203;-64
2022/07/31 05:57:05;;;;;;;0.53;0.53;;;;;;;25.54;51.66;94979.81;5051928;28;20231;-66
2022/07/31 05:59:38;;;;;;;0.57;0.57;;;;;;;25.82;50.63;94981.22;5050192;28;20239;-66
2022/07/31 06:02:05;;;;;;;0.43;0.43;;;;;;;26.02;51.03;94984.78;5035553;28;20597;-62
2022/07/31 06:04:52;;;;;;;0.40;0.40;;;;;;;25.80;50.64;94988.84;5051420;28;20204;-67
2022/07/31 06:07:19;;;;;;;0.70;0.70;;;;;;;25.74;50.33;94990.28;5049951;28;20223;-64
2022/07/31 06:09:46;;;;;;;0.80;0.80;;;;;;;25.52;51.23;94984.75;5041155;28;20193;-63
2022/07/31 06:12:16;;;;;;;0.60;0.60;;;;;;;25.91;50.67;94995.25;5049768;28;20310;-67
2022/07/31 06:14:43;;;;;;;0.83;0.83;;;;;;;25.64;50.32;94984.63;5051845;28;20299;-67
2022/07/31 06:17:16;;;;;;;2.43;0.93;;;;;;;25.37;51.32;94974.75;5036846;28;20756;-68
2022/07/31 06:19:43;;;;;;;0.27;0.27;;;;;;;25.88;49.88;94984.44;5046432;28;20216;-63
2022/07/31 06:22:11;;;;;;;0.70;0.70;;;;;;;26.08;49.32;94978.00;5043659;28;20287;-70
2022/07/31 06:24:38;;;;;;;0.50;0.50;;;;;;;26.29;49.62;94977.69;5037584;28;20201;-66
2022/07/31 06:27:09;;;;;;;0.60;0.60;;;;;;;26.16;50.36;94978.94;5049607;28;20609;-65
2022/07/31 06:29:56;;;;;;;2.30;1.00;;;;;;;26.26;49.48;94973.78;5037830;28;20185;-63
2022/07/31 06:32:23;;;;;;;1.30;0.87;;;;;;;26.60;49.14;94978.34;5050905;28;20250;-64
2022/07/31 06:34:51;;;;;;;0.67;0.57;;;;;;;26.45;49.05;94967.66;5049710;28;20648;-63
2022/07/31 06:37:18;;;;;;;0.90;0.90;;;;;;;26.67;49.67;94967.72;5037920;28;20268;-66
2022/07/31 06:39:47;;;;;;;0.70;0.70;;;;;;;26.77;48.60;94961.00;5049222;28;20227;-69
2022/07/31 06:42:54;;;;;;;0.60;0.60;;;;;;;26.93;48.99;94965.16;5059976;28;20208;-64
2022/07/31 06:45:49;;;;;;;0.43;0.43;;;;;;;27.30;47.94;94957.34;5037109;28;20735;-65
2022/07/31 06:48:36;;;;;;;0.40;0.40;;;;;;;27.50;47.07;94960.81;5038684;28;20211;-66
2022/07/31 06:51:08;;;;;;;0.60;0.60;;;;;;;27.29;46.35;94960.41;5049339;28;20236;-69
2022/07/31 06:53:55;;;;;;;0.83;0.83;;;;;;;26.97;47.20;94959.84;5049051;28;20204;-65
2022/07/31 06:56:22;;;;;;;1.23;1.17;;;;;;;27.48;47.24;94963.09;5049471;28;20211;-62
2022/07/31 06:58:48;;;;;;;0.67;0.67;;;;;;;27.57;46.72;94971.69;5031071;28;20197;-65
2022/07/31 07:01:15;;;;;;;1.00;0.90;;;;;;;27.29;46.74;94977.34;5039155;28;20204;-68
2022/07/31 07:03:42;;;;;;;1.20;1.17;;;;;;;26.87;47.14;94972.00;5050165;28;20200;-64
2022/07/31 07:06:10;;;;;;;1.53;1.43;;;;;;;26.19;48.55;94981.69;5049143;28;20208;-69
2022/07/31 07:08:36;;;;;;;0.90;0.90;;;;;;;26.83;47.68;94981.88;5035286;28;20239;-65
2022/07/31 07:11:03;;;;;;;4.70;1.60;;;;;;;26.47;47.93;94978.84;5042587;28;20587;-67
2022/07/31 07:13:34;;;;;;;0.97;0.63;;;;;;;26.31;47.86;94981.59;5043593;28;20224;-69
2022/07/31 07:16:15;;;;;;;1.57;1.47;;;;;;;27.06;47.38;94979.25;5049808;28;20274;-65
2022/07/31 07:18:42;;;;;;;1.17;1.07;;;;;;;27.21;46.86;94981.03;5042762;28;20200;-69
2022/07/31 07:21:10;;;;;;;1.43;1.33;;;;;;;27.44;46.45;94976.47;5048690;28;20671;-68
2022/07/31 07:23:37;;;;;;;3.20;2.37;;;;;;;27.56;46.47;94983.56;5050024;28;20189;-68
2022/07/31 07:26:30;;;;;;;0.50;0.50;;;;;;;26.50;48.73;94981.59;5038807;28;20235;-67
2022/07/31 07:28:59;;;;;;;1.50;0.77;;;;;;;27.02;48.83;94986.47;5052749;28;20265;-65
2022/07/31 07:31:28;;;;;;;6.50;0.97;;;;;;;27.95;46.51;94976.91;5046237;28;20665;-67
2022/07/31 07:33:56;;;;;;;1.03;1.03;;;;;;;27.81;45.65;94976.66;5045898;28;20200;-66
2022/07/31 07:36:24;;;;;;;1.10;0.67;;;;;;;28.17;45.35;94978.78;5052938;28;20246;-64
2022/07/31 07:39:02;;;;;;;0.40;0.40;;;;;;;27.93;45.95;94979.97;5052847;28;20199;-65
2022/07/31 07:41:30;;;;;;;1.20;1.10;;;;;;;27.93;46.43;94965.72;5052535;28;20200;-64
2022/07/31 07:43:59;;;;;;;0.77;0.77;;;;;;;28.38;44.75;94968.25;5052852;28;20254;-71
2022/07/31 07:46:27;;;;;;;0.40;0.40;;;;;;;28.51;45.14;94974.97;5034646;28;20260;-65
2022/07/31 07:49:01;;;;;;;0.53;0.53;;;;;;;28.62;45.35;94961.66;5032641;28;20645;-66
2022/07/31 07:51:40;;;;;;;1.30;1.20;;;;;;;28.58;45.12;94960.81;5051339;28;20694;-65
2022/07/31 07:54:38;;;;;;;1.93;1.53;;;;;;;28.26;45.08;94960.41;5041371;28;20212;-66
2022/07/31 07:57:24;;;;;;;5.87;1.87;;;;;;;27.87;46.35;94954.44;5040113;28;20633;-67
2022/07/31 08:00:11;;;;;;;0.70;0.70;;;;;;;27.83;45.82;94971.69;5053571;28;20200;-65
2022/07/31 08:02:54;;;;;;;1.27;1.17;;;;;;;27.42;46.99;94969.91;5053541;28;20651;-67
2022/07/31 08:05:42;;;;;;;1.20;1.17;;;;;;;27.32;47.19;94975.84;5052539;28;20258;-66
2022/07/31 08:08:09;;;;;;;2.50;0.93;;;;;;;26.67;47.81;94973.09;5042080;28;20185;-70
2022/07/31 08:10:48;;;;;;;2.70;2.50;;;;;;;27.20;47.41;94974.13;5052190;28;20201;-65
2022/07/31 08:13:22;;;;;;;0.40;0.40;;;;;;;27.19;47.64;94987.94;5040680;28;20200;-69
2022/07/31 08:16:07;;;;;;;1.70;1.60;;;;;;;27.24;47.38;94987.63;5040070;28;20202;-64
2022/07/31 08:18:42;;;;;;;1.23;1.13;;;;;;;27.11;47.19;94991.63;5052386;28;20197;-70
2022/07/31 08:21:10;;;;;;;2.87;1.40;;;;;;;27.29;46.56;94998.09;5038183;28;20789;-66
2022/07/31 08:23:37;;;;;;;0.73;0.63;;;;;;;27.03;47.03;94978.03;5052428;28;20753;-63
2022/07/31 08:26:07;;;;;;;0.77;0.77;;;;;;;27.41;46.97;94996.03;5037399;28;20612;-65
2022/07/31 08:28:35;;;;;;;0.87;0.87;;;;;;;27.63;47.07;94981.00;5042331;28;20283;-65
2022/07/31 08:31:02;;;;;;;6.33;1.50;;;;;;;28.47;45.63;94992.22;5034746;28;20646;-68
2022/07/31 08:33:31;;;;;;;1.00;0.93;;;;;;;27.97;46.36;94990.78;5051686;28;20291;-67
2022/07/31 08:35:59;;;;;;;0.80;0.80;;;;;;;28.25;45.49;94985.03;5037365;28;20737;-67
2022/07/31 08:38:27;;;;;;;1.20;1.10;;;;;;;28.26;44.28;94984.66;5053014;28;20188;-69
2022/07/31 08:41:17;;;;;;;0.50;0.50;;;;;;;28.75;43.13;94981.84;5037562;28;20205;-67
2022/07/31 08:43:44;;;;;;;0.80;0.80;;;;;;;28.40;43.88;94997.53;5051652;28;20208;-69
2022/07/31 08:46:37;;;;;;;1.90;1.77;;;;;;;27.80;45.97;94997.44;5051361;28;20318;-70
2022/07/31 08:49:08;;;;;;;1.60;1.50;;;;;;;27.71;46.48;94998.81;5051719;28;20196;-69
2022/07/31 08:51:42;;;;;;;0.47;0.47;;;;;;;28.21;44.95;94990.34;5046579;28;20208;-70
2022/07/31 08:54:21;;;;;;;0.50;0.50;;;;;;;27.41;45.86;94992.56;5051616;28;20192;-65
2022/07/31 08:56:52;;;;;;;1.00;0.93;;;;;;;27.57;45.71;94993.22;5050028;28;20193;-66
2022/07/31 08:59:19;;;;;;;0.37;0.37;;;;;;;27.28;45.11;94991.16;5040294;28;20192;-67
2022/07/31 09:01:46;;;;;;;0.83;0.83;;;;;;;27.19;46.12;94998.69;5054993;28;20197;-71
2022/07/31 09:04:14;;;;;;;0.40;0.40;;;;;;;28.09;44.70;94979.03;5038401;28;20237;-71
2022/07/31 09:06:41;;;;;;;2.43;1.33;;;;;;;28.11;44.93;94991.00;5051352;28;20721;-67
2022/07/31 09:09:08;;;;;;;1.47;1.20;;;;;;;28.24;44.29;94992.34;5052366;28;20254;-69
2022/07/31 09:11:48;;;;;;;1.17;0.97;;;;;;;28.30;43.77;94992.78;5051032;28;20706;-64
2022/07/31 09:14:34;;;;;;;0.60;0.60;;;;;;;27.97;44.39;95001.56;5040176;28;20212;-68
2022/07/31 09:17:08;;;;;;;1.30;1.30;;;;;;;28.22;43.98;94991.91;5051015;28;20212;-68
2022/07/31 09:19:46;;;;;;;0.70;0.70;;;;;;;28.29;43.73;94985.84;5045449;28;20276;-65
2022/07/31 09:22:29;;;;;;;0.77;0.60;;;;;;;27.61;45.46;94988.69;5044856;28;20686;-66
2022/07/31 09:25:06;;;;;;;0.57;0.57;;;;;;;27.45;46.35;94985.31;5031343;28;20208;-67
2022/07/31 09:27:33;;;;;;;0.60;0.60;;;;;;;27.09;47.08;94999.25;5047316;28;20259;-62
2022/07/31 09:29:59;;;;;;;1.13;1.07;;;;;;;27.28;46.78;94977.72;5044036;28;20192;-66
2022/07/31 09:32:46;;;;;;;0.47;0.47;;;;;;;27.92;45.29;94972.19;5032175;28;20735;-65
2022/07/31 09:35:20;;;;;;;0.40;0.40;;;;;;;27.49;45.54;94986.16;5041496;28;20258;-69
2022/07/31 09:37:48;;;;;;;1.70;1.40;;;;;;;28.48;43.80;94978.41;5035499;28;20681;-68
2022/07/31 09:40:14;;;;;;;2.47;2.27;;;;;;;28.57;43.36;94964.66;5032114;28;20198;-68
2022/07/31 09:43:18;;;;;;;2.37;1.67;;;;;;;28.47;43.24;94965.28;5055197;28;20231;-65
2022/07/31 09:45:48;;;;;;;1.30;1.20;;;;;;;28.30;43.30;94955.84;5050256;28;20228;-67
2022/07/31 09:48:14;;;;;;;1.07;1.00;;;;;;;27.25;44.72;94965.75;5037910;28;20224;-70
2022/07/31 09:50:58;;;;;;;0.40;0.40;;;;;;;28.51;42.42;94960.72;5050129;28;20681;-68
2022/07/31 09:53:44;;;;;;;1.07;0.77;;;;;;;28.98;41.21;94950.09;5042305;28;20567;-67
2022/07/31 09:56:37;;;;;;;1.83;1.27;;;;;;;29.25;40.28;94956.19;5045220;28;21034;-65
2022/07/31 09:59:07;;;;;;;1.20;1.13;;;;;;;28.10;40.48;94962.50;5030831;28;20216;-68
2022/07/31 10:01:40;;;;;;;2.37;1.10;;;;;;;28.06;40.94;94963.59;5043556;28;20224;-72
2022/07/31 10:04:07;;;;;;;2.63;1.67;;;;;;;28.69;40.61;94957.13;5037228;28;20284;-68
2022/07/31 10:06:35;;;;;;;4.00;2.20;;;;;;;28.14;41.03;94963.31;5057355;28;20691;-64
2022/07/31 10:09:04;;;;;;;1.03;1.03;;;;;;;29.10;40.19;94954.44;5049322;28;20205;-69
2022/07/31 10:11:56;;;;;;;1.17;1.07;;;;;;;28.98;39.75;94942.78;5050323;28;20285;-68
2022/07/31 10:14:29;;;;;;;1.17;1.17;;;;;;;28.61;39.63;94955.47;5030651;28;20201;-67
2022/07/31 10:17:03;;;;;;;2.63;1.17;;;;;;;28.34;39.51;94951.25;5043094;28;20200;-70
2022/07/31 10:19:39;;;;;;;1.63;1.53;;;;;;;28.59;39.36;94957.00;5050025;28;20282;-68
2022/07/31 10:22:26;;;;;;;4.20;1.80;;;;;;;27.67;41.22;94949.53;5047832;28;20200;-68
2022/07/31 10:25:00;;;;;;;1.80;1.50;;;;;;;28.09;40.69;94938.59;5039867;28;20240;-65
2022/07/31 10:27:28;;;;;;;1.07;1.07;;;;;;;28.43;39.45;94949.06;5033954;28;20224;-68
2022/07/31 10:30:06;;;;;;;1.80;1.50;;;;;;;28.64;38.14;94938.56;5038873;28;20212;-64
2022/07/31 10:32:37;;;;;;;1.50;1.40;;;;;;;29.04;37.34;94942.44;5049525;28;20212;-71
2022/07/31 10:35:22;;;;;;;2.03;1.40;;;;;;;28.91;37.06;94931.13;5050967;28;20215;-70
2022/07/31 10:38:29;;;;;;;1.17;1.17;;;;;;;29.21;36.53;94931.06;5037265;28;20197;-64
2022/07/31 10:41:10;;;;;;;0.97;0.97;;;;;;;29.11;36.44;94934.41;5036122;28;20204;-67
2022/07/31 10:43:47;;;;;;;0.83;0.83;;;;;;;29.51;35.85;94910.88;5049294;28;20302;-69
2022/07/31 10:46:40;;;;;;;1.00;1.00;;;;;;;30.15;35.71;94912.06;5057214;28;20212;-66
2022/07/31 10:49:48;;;;;;;2.00;1.37;;;;;;;30.06;35.20;94911.66;5028511;28;20274;-69
2022/07/31 10:52:28;;;;;;;1.67;0.93;;;;;;;29.91;35.44;94912.72;5028238;28;20201;-67
2022/07/31 10:55:26;;;;;;;1.30;0.97;;;;;;;29.65;36.16;94916.38;5042057;28;20262;-68
2022/07/31 10:58:20;;;;;;;1.40;1.00;;;;;;;30.08;35.27;94912.03;5036602;28;20588;-65
2022/07/31 11:00:52;;;;;;;3.57;1.73;;;;;;;30.34;35.75;94919.16;5035563;28;20358;-65
2022/07/31 11:03:57;;;;;;;0.70;0.60;;;;;;;30.18;35.03;94913.25;5056113;28;20196;-64
2022/07/31 11:06:43;;;;;;;1.90;1.10;;;;;;;30.67;34.67;94903.44;5050451;28;20334;-64
2022/07/31 11:09:40;;;;;;;1.17;1.00;;;;;;;31.10;34.13;94917.06;5039421;28;20208;-70
2022/07/31 11:13:07;;;;;;;1.00;1.00;;;;;;;31.25;32.89;94908.59;5036739;28;20201;-67
2022/07/31 11:15:47;;;;;;;0.80;0.80;;;;;;;31.20;33.35;94910.91;5034739;28;20210;-65
2022/07/31 11:18:33;;;;;;;0.63;0.63;;;;;;;30.72;33.70;94899.56;5050773;28;20219;-66
2022/07/31 11:21:06;;;;;;;1.37;1.30;;;;;;;31.24;33.27;94895.44;5036479;28;20200;-65
2022/07/31 11:23:53;;;;;;;0.70;0.60;;;;;;;30.93;32.70;94885.34;5050410;28;20291;-67
2022/07/31 11:26:28;;;;;;;1.17;1.03;;;;;;;30.43;32.32;94896.03;5050731;28;20196;-68
2022/07/31 11:29:08;;;;;;;0.90;0.90;;;;;;;30.67;32.88;94894.53;5048793;28;20203;-65
2022/07/31 11:32:14;;;;;;;0.87;0.63;;;;;;;30.61;34.84;94891.44;5040862;28;20239;-66
2022/07/31 11:34:50;;;;;;;0.90;0.90;;;;;;;30.27;34.45;94886.69;5044813;28;20205;-68
2022/07/31 11:37:21;;;;;;;3.60;1.67;;;;;;;30.41;33.51;94892.13;5042718;28;20204;-71
2022/07/31 11:39:53;;;;;;;1.40;1.30;;;;;;;30.51;33.15;94888.72;5048853;28;20192;-69
2022/07/31 11:42:23;;;;;;;1.93;1.33;;;;;;;30.66;32.32;94877.53;5050074;28;20726;-67
2022/07/31 11:45:04;;;;;;;0.50;0.50;;;;;;;30.92;32.09;94895.41;5035940;28;20313;-69
2022/07/31 11:47:42;;;;;;;1.73;1.63;;;;;;;31.03;32.35;94884.56;5036283;28;20228;-68
2022/07/31 11:50:38;;;;;;;1.50;0.63;;;;;;;31.48;32.65;94879.19;5029991;28;20196;-68
2022/07/31 11:53:05;;;;;;;0.97;0.87;;;;;;;31.04;32.68;94875.31;5047061;28;20258;-68
2022/07/31 11:56:02;;;;;;;1.13;1.07;;;;;;;30.47;33.93;94867.06;5050196;28;20196;-65
2022/07/31 11:58:30;;;;;;;1.07;1.07;;;;;;;29.88;35.43;94864.84;5048912;28;20254;-68
2022/07/31 12:01:00;;;;;;;1.10;1.00;;;;;;;30.77;35.35;94862.09;5037453;28;20291;-64
2022/07/31 12:03:33;;;;;;;0.83;0.80;;;;;;;31.00;33.80;94863.69;5050003;28;20204;-69
2022/07/31 12:06:00;;;;;;;1.17;1.07;;;;;;;30.69;34.34;94857.81;5037141;28;20193;-62
2022/07/31 12:08:28;;;;;;;0.87;0.87;;;;;;;31.69;33.29;94862.94;5050024;28;20306;-67